createdAt,value
2022-08-03T00:00:32.277Z,61.25
2022-08-03T00:03:00.232Z,61.25
2022-08-03T00:05:28.159Z,61.58
2022-08-03T00:07:57.376Z,61.24
2022-08-03T00:10:25.235Z,61.64
2022-08-03T00:12:53.220Z,61.56
2022-08-03T00:15:21.275Z,61.70
2022-08-03T00:17:53.743Z,61.55
2022-08-03T00:20:22.138Z,60.77
2022-08-03T00:22:50.478Z,61.37
2022-08-03T00:25:19.724Z,61.33
2022-08-03T00:27:48.320Z,61.42
2022-08-03T00:30:16.902Z,61.38
2022-08-03T00:32:45.617Z,60.89
2022-08-03T00:35:29.362Z,60.97
2022-08-03T00:38:01.947Z,61.13
2022-08-03T00:40:31.217Z,60.85
2022-08-03T00:43:00.704Z,60.87
2022-08-03T00:45:30.137Z,60.90
2022-08-03T00:47:58.612Z,60.69
2022-08-03T00:50:28.587Z,60.57
2022-08-03T00:52:59.837Z,60.89
2022-08-03T00:55:28.093Z,61.00
2022-08-03T00:57:57.764Z,61.53
2022-08-03T01:00:27.661Z,61.95
2022-08-03T01:02:55.876Z,62.38
2022-08-03T01:05:24.155Z,62.37
2022-08-03T01:08:04.353Z,62.48
2022-08-03T01:10:40.821Z,62.69
2022-08-03T01:14:04.124Z,62.63
2022-08-03T01:16:16.099Z,62.45
2022-08-03T01:18:49.978Z,62.74
2022-08-03T01:21:27.764Z,62.65
2022-08-03T01:24:05.278Z,62.72
2022-08-03T01:26:52.892Z,62.53
2022-08-03T01:29:53.698Z,62.54
2022-08-03T01:32:58.714Z,62.67
2022-08-03T01:35:16.751Z,62.90
2022-08-03T01:37:51.233Z,62.90
2022-08-03T01:40:21.977Z,62.13
2022-08-03T01:42:51.827Z,62.34
2022-08-03T01:45:23.429Z,62.78
2022-08-03T01:47:52.636Z,62.35
2022-08-03T01:50:25.515Z,62.91
2022-08-03T01:52:55.740Z,63.10
2022-08-03T01:55:27.338Z,62.78
2022-08-03T01:58:04.683Z,63.26
2022-08-03T02:00:38.088Z,63.48
2022-08-03T02:03:07.753Z,63.22
2022-08-03T02:05:36.987Z,63.15
2022-08-03T02:08:06.551Z,63.09
2022-08-03T02:10:37.217Z,63.35
2022-08-03T02:13:07.815Z,63.23
2022-08-03T02:15:38.199Z,63.59
2022-08-03T02:18:08.621Z,63.22
2022-08-03T02:20:38.936Z,63.08
2022-08-03T02:23:07.518Z,63.24
2022-08-03T02:25:38.810Z,63.51
2022-08-03T02:28:09.917Z,63.53
2022-08-03T02:30:42.055Z,63.80
2022-08-03T02:33:19.564Z,64.04
2022-08-03T02:35:49.679Z,63.88
2022-08-03T02:38:22.236Z,63.64
2022-08-03T02:40:52.546Z,63.94
2022-08-03T02:43:24.176Z,63.80
2022-08-03T02:45:54.627Z,64.09
2022-08-03T02:48:26.393Z,64.72
2022-08-03T02:50:56.115Z,65.08
2022-08-03T02:53:26.012Z,64.79
2022-08-03T02:55:56.463Z,64.69
2022-08-03T02:58:25.768Z,64.87
2022-08-03T03:00:56.237Z,64.69
2022-08-03T03:03:25.624Z,65.03
2022-08-03T03:05:57.803Z,65.17
2022-08-03T03:08:29.217Z,64.91
2022-08-03T03:10:59.279Z,65.00
2022-08-03T03:13:29.274Z,65.28
2022-08-03T03:16:02.256Z,64.92
2022-08-03T03:18:33.372Z,64.94
2022-08-03T03:21:03.773Z,65.14
2022-08-03T03:23:33.003Z,65.13
2022-08-03T03:26:02.378Z,65.27
2022-08-03T03:28:31.528Z,65.05
2022-08-03T03:31:01.766Z,65.36
2022-08-03T03:33:29.667Z,65.41
2022-08-03T03:35:59.560Z,65.70
2022-08-03T03:38:28.084Z,65.90
2022-08-03T03:40:56.757Z,66.01
2022-08-03T03:43:25.777Z,66.21
2022-08-03T03:45:54.202Z,66.00
2022-08-03T03:48:23.523Z,66.32
2022-08-03T03:50:51.645Z,66.20
2022-08-03T03:53:19.771Z,66.54
2022-08-03T03:55:59.238Z,66.40
2022-08-03T03:58:32.257Z,66.73
2022-08-03T04:01:00.472Z,66.78
2022-08-03T04:03:29.784Z,67.39
2022-08-03T04:06:16.124Z,67.02
2022-08-03T04:09:13.384Z,67.18
2022-08-03T04:11:44.719Z,66.98
2022-08-03T04:14:15.954Z,67.24
2022-08-03T04:16:48.234Z,67.47
2022-08-03T04:19:23.291Z,67.52
2022-08-03T04:21:56.901Z,67.37
2022-08-03T04:24:28.122Z,67.24
2022-08-03T04:26:57.259Z,67.12
2022-08-03T04:29:27.807Z,67.36
2022-08-03T04:31:57.713Z,66.94
2022-08-03T04:34:27.062Z,67.37
2022-08-03T04:37:00.104Z,67.34
2022-08-03T04:39:31.023Z,67.79
2022-08-03T04:42:08.149Z,67.48
2022-08-03T04:44:39.042Z,67.89
2022-08-03T04:47:07.273Z,67.38
2022-08-03T04:49:38.624Z,67.47
2022-08-03T04:52:09.969Z,67.80
2022-08-03T04:54:41.988Z,67.72
2022-08-03T04:57:09.931Z,67.96
2022-08-03T04:59:54.671Z,67.85
2022-08-03T05:02:26.067Z,68.16
2022-08-03T05:04:55.369Z,68.20
2022-08-03T05:07:24.761Z,68.04
2022-08-03T05:09:53.686Z,68.47
2022-08-03T05:12:32.752Z,68.42
2022-08-03T05:15:01.253Z,68.48
2022-08-03T05:17:29.676Z,68.39
2022-08-03T05:19:58.993Z,68.32
2022-08-03T05:22:26.898Z,68.22
2022-08-03T05:24:54.795Z,68.82
2022-08-03T05:27:22.725Z,68.59
2022-08-03T05:29:51.499Z,68.27
2022-08-03T05:32:19.930Z,67.99
2022-08-03T05:34:47.935Z,67.85
2022-08-03T05:37:17.205Z,67.95
2022-08-03T05:39:45.047Z,67.78
2022-08-03T05:42:12.939Z,67.83
2022-08-03T05:44:42.083Z,67.66
2022-08-03T05:47:09.999Z,67.79
2022-08-03T05:49:37.903Z,67.65
2022-08-03T05:52:12.951Z,67.49
2022-08-03T05:54:56.764Z,67.55
2022-08-03T05:57:25.631Z,67.04
2022-08-03T05:59:57.731Z,66.83
2022-08-03T06:02:26.737Z,66.87
2022-08-03T06:04:54.665Z,65.77
2022-08-03T06:07:22.780Z,65.43
2022-08-03T06:10:35.079Z,65.32
2022-08-03T06:12:41.335Z,65.19
2022-08-03T06:15:11.561Z,64.93
2022-08-03T06:17:46.824Z,64.31
2022-08-03T06:20:14.757Z,64.36
2022-08-03T06:22:50.745Z,63.83
2022-08-03T06:25:21.461Z,63.76
2022-08-03T06:27:49.416Z,63.90
2022-08-03T06:30:21.333Z,62.96
2022-08-03T06:32:52.135Z,62.82
2022-08-03T06:35:20.581Z,62.45
2022-08-03T06:37:50.169Z,62.18
2022-08-03T06:40:21.869Z,61.89
2022-08-03T06:42:52.562Z,61.13
2022-08-03T06:45:20.637Z,61.17
2022-08-03T06:47:49.007Z,60.81
2022-08-03T06:50:19.032Z,60.41
2022-08-03T06:52:48.583Z,59.87
2022-08-03T06:55:16.659Z,59.72
2022-08-03T06:57:45.919Z,59.13
2022-08-03T07:00:14.825Z,58.64
2022-08-03T07:02:43.123Z,58.67
2022-08-03T07:05:12.449Z,58.72
2022-08-03T07:07:41.062Z,58.42
2022-08-03T07:10:10.114Z,58.29
2022-08-03T07:12:55.855Z,57.55
2022-08-03T07:15:54.413Z,57.41
2022-08-03T07:18:14.201Z,57.62
2022-08-03T07:20:42.242Z,56.96
2022-08-03T07:23:16.079Z,57.20
2022-08-03T07:25:47.260Z,56.63
2022-08-03T07:28:15.536Z,55.79
2022-08-03T07:30:44.855Z,55.60
2022-08-03T07:33:12.700Z,55.31
2022-08-03T07:35:40.830Z,55.29
2022-08-03T07:38:08.713Z,55.69
2022-08-03T07:40:36.782Z,55.19
2022-08-03T07:43:05.044Z,55.35
2022-08-03T07:45:33.157Z,54.30
2022-08-03T07:48:02.543Z,54.95
2022-08-03T07:50:30.482Z,52.96
2022-08-03T07:52:59.766Z,52.01
2022-08-03T07:55:28.652Z,51.15
2022-08-03T07:58:04.956Z,51.15
2022-08-03T08:00:33.003Z,50.10
2022-08-03T08:03:02.757Z,50.73
2022-08-03T08:05:30.649Z,49.91
2022-08-03T08:07:58.645Z,49.79
2022-08-03T08:10:26.691Z,50.17
2022-08-03T08:12:54.751Z,49.39
2022-08-03T08:15:22.787Z,49.66
2022-08-03T08:17:53.497Z,49.47
2022-08-03T08:20:27.943Z,49.57
2022-08-03T08:22:58.264Z,50.08
2022-08-03T08:25:29.491Z,50.15
2022-08-03T08:28:30.573Z,49.39
2022-08-03T08:30:46.049Z,48.90
2022-08-03T08:33:23.286Z,49.03
2022-08-03T08:35:54.432Z,48.78
2022-08-03T08:38:22.862Z,48.02
2022-08-03T08:40:51.040Z,48.31
2022-08-03T08:43:18.991Z,48.15
2022-08-03T08:45:50.128Z,47.54
2022-08-03T08:48:23.471Z,47.25
2022-08-03T08:50:56.630Z,46.76
2022-08-03T08:53:27.916Z,46.80
2022-08-03T08:56:00.692Z,45.91
2022-08-03T08:58:32.608Z,46.39
2022-08-03T09:01:00.854Z,45.03
2022-08-03T09:03:29.966Z,46.47
2022-08-03T09:06:02.264Z,45.78
2022-08-03T09:08:31.261Z,46.40
2022-08-03T09:10:59.433Z,46.55
2022-08-03T09:13:27.583Z,45.95
2022-08-03T09:16:16.964Z,43.36
2022-08-03T09:18:46.459Z,43.46
2022-08-03T09:21:34.275Z,43.01
2022-08-03T09:24:06.231Z,42.72
2022-08-03T09:26:37.879Z,42.78
2022-08-03T09:29:13.934Z,42.25
2022-08-03T09:31:44.701Z,43.03
2022-08-03T09:34:14.303Z,43.14
2022-08-03T09:36:45.857Z,42.54
2022-08-03T09:39:16.207Z,40.95
2022-08-03T09:41:45.737Z,40.79
2022-08-03T09:44:16.158Z,40.44
2022-08-03T09:46:55.680Z,39.93
2022-08-03T09:49:24.368Z,39.78
2022-08-03T09:52:31.494Z,39.62
2022-08-03T09:54:43.080Z,37.43
2022-08-03T09:57:22.974Z,35.55
2022-08-03T09:59:53.887Z,39.02
2022-08-03T10:02:41.700Z,38.76
2022-08-03T10:05:19.450Z,40.02
2022-08-03T10:07:50.765Z,40.61
2022-08-03T10:10:31.110Z,40.56
2022-08-03T10:13:01.201Z,41.15
2022-08-03T10:16:21.201Z,39.56
2022-08-03T10:18:17.632Z,39.21
2022-08-03T10:20:50.413Z,39.21
2022-08-03T10:23:21.528Z,39.36
2022-08-03T10:25:53.769Z,39.99
2022-08-03T10:28:23.239Z,38.42
2022-08-03T10:30:52.684Z,38.68
2022-08-03T10:33:51.329Z,38.78
2022-08-03T10:36:14.327Z,39.57
2022-08-03T10:38:52.413Z,39.92
2022-08-03T10:41:21.668Z,39.73
2022-08-03T10:43:54.015Z,39.36
2022-08-03T10:46:22.527Z,39.43
2022-08-03T10:48:52.755Z,39.01
2022-08-03T10:51:22.049Z,40.24
2022-08-03T10:53:54.546Z,40.40
2022-08-03T10:57:12.396Z,38.80
2022-08-03T11:00:05.117Z,38.68
2022-08-03T11:03:08.584Z,38.98
2022-08-03T11:05:42.017Z,39.75
2022-08-03T11:08:20.598Z,39.97
2022-08-03T11:10:51.053Z,39.85
2022-08-03T11:13:21.356Z,39.65
2022-08-03T11:15:52.882Z,39.75
2022-08-03T11:18:28.333Z,39.79
2022-08-03T11:20:58.244Z,40.81
2022-08-03T11:24:03.940Z,39.28
2022-08-03T11:26:34.166Z,39.29
2022-08-03T11:29:28.254Z,39.64
2022-08-03T11:31:56.180Z,38.84
2022-08-03T11:34:24.643Z,39.07
2022-08-03T11:37:28.723Z,39.99
2022-08-03T11:39:58.049Z,39.27
2022-08-03T11:42:45.666Z,37.50
2022-08-03T11:45:14.961Z,38.17
2022-08-03T11:47:50.169Z,37.17
2022-08-03T11:50:20.150Z,37.81
2022-08-03T11:52:48.956Z,37.38
2022-08-03T11:55:20.446Z,37.12
2022-08-03T11:59:17.091Z,37.02
2022-08-03T12:00:38.295Z,37.80
2022-08-03T12:03:08.738Z,36.78
2022-08-03T12:05:42.213Z,36.50
2022-08-03T12:08:33.139Z,36.96
2022-08-03T12:11:03.062Z,36.63
2022-08-03T12:14:33.069Z,37.54
2022-08-03T12:16:29.697Z,37.35
2022-08-03T12:18:58.714Z,36.60
2022-08-03T12:21:26.698Z,36.19
2022-08-03T12:23:59.028Z,36.77
2022-08-03T12:26:27.616Z,37.25
2022-08-03T12:28:57.322Z,35.82
2022-08-03T12:31:25.756Z,35.56
2022-08-03T12:33:59.460Z,36.44
2022-08-03T12:36:28.334Z,36.80
2022-08-03T12:38:57.812Z,35.11
2022-08-03T12:41:31.145Z,34.39
2022-08-03T12:44:00.666Z,35.18
2022-08-03T12:46:34.374Z,35.87
2022-08-03T12:49:06.600Z,35.72
2022-08-03T12:51:36.245Z,35.55
2022-08-03T12:54:05.967Z,35.78
2022-08-03T12:56:34.196Z,34.89
2022-08-03T12:59:32.494Z,34.49
2022-08-03T13:02:04.316Z,33.91
2022-08-03T13:04:34.557Z,34.16
2022-08-03T13:07:05.016Z,33.48
2022-08-03T13:09:43.165Z,34.05
2022-08-03T13:12:13.146Z,34.56
2022-08-03T13:14:43.165Z,34.05
2022-08-03T13:17:11.678Z,33.86
2022-08-03T13:19:40.624Z,33.63
2022-08-03T13:22:16.230Z,33.44
2022-08-03T13:24:45.469Z,33.70
2022-08-03T13:27:22.507Z,33.19
2022-08-03T13:30:03.994Z,33.26
2022-08-03T13:32:32.072Z,33.52
2022-08-03T13:35:00.164Z,34.09
2022-08-03T13:37:28.177Z,33.83
2022-08-03T13:40:02.218Z,34.37
2022-08-03T13:42:32.284Z,34.15
2022-08-03T13:45:01.056Z,33.57
2022-08-03T13:47:30.872Z,33.41
2022-08-03T13:50:00.932Z,33.00
2022-08-03T13:52:34.968Z,32.88
2022-08-03T13:55:03.667Z,33.31
2022-08-03T13:58:06.273Z,32.78
2022-08-03T14:00:27.044Z,33.16
2022-08-03T14:03:06.701Z,32.56
2022-08-03T14:05:38.694Z,32.77
2022-08-03T14:08:07.871Z,32.85
2022-08-03T14:10:38.698Z,32.92
2022-08-03T14:13:07.275Z,32.77
2022-08-03T14:15:37.936Z,31.92
2022-08-03T14:18:15.765Z,31.71
2022-08-03T14:20:57.954Z,31.55
2022-08-03T14:23:27.648Z,31.18
2022-08-03T14:25:55.592Z,30.90
2022-08-03T14:28:25.057Z,31.14
2022-08-03T14:30:53.942Z,31.82
2022-08-03T14:33:24.151Z,31.16
2022-08-03T14:35:52.888Z,30.55
2022-08-03T14:38:22.111Z,30.38
2022-08-03T14:40:50.312Z,31.58
2022-08-03T14:43:20.336Z,31.66
2022-08-03T14:45:52.126Z,31.48
2022-08-03T14:50:30.922Z,31.33
2022-08-03T14:51:10.240Z,32.00
2022-08-03T14:53:38.470Z,31.59
2022-08-03T14:56:10.502Z,31.20
2022-08-03T14:58:39.129Z,31.33
2022-08-03T15:02:02.634Z,31.40
2022-08-03T15:03:55.311Z,31.61
2022-08-03T15:06:25.554Z,31.55
2022-08-03T15:09:21.353Z,31.43
2022-08-03T15:11:42.469Z,31.49
2022-08-03T15:14:10.583Z,30.59
2022-08-03T15:16:41.839Z,31.83
2022-08-03T15:20:01.173Z,32.20
2022-08-03T15:22:01.016Z,31.19
2022-08-03T15:24:30.340Z,30.79
2022-08-03T15:26:58.554Z,30.42
2022-08-03T15:30:09.519Z,30.83
2022-08-03T15:32:15.253Z,30.64
2022-08-03T15:34:50.553Z,31.04
2022-08-03T15:37:21.062Z,31.29
2022-08-03T15:39:59.308Z,30.99
2022-08-03T15:42:29.612Z,32.04
2022-08-03T15:44:58.039Z,32.41
2022-08-03T15:47:26.245Z,32.87
2022-08-03T15:49:54.165Z,32.29
2022-08-03T15:52:23.473Z,32.20
2022-08-03T15:54:51.465Z,32.10
2022-08-03T15:57:19.499Z,32.35
2022-08-03T15:59:47.856Z,32.68
2022-08-03T16:02:16.183Z,32.61
2022-08-03T16:04:44.161Z,31.87
2022-08-03T16:07:12.595Z,33.00
2022-08-03T16:09:43.844Z,32.35
2022-08-03T16:12:15.894Z,32.49
2022-08-03T16:14:53.403Z,32.45
2022-08-03T16:17:23.590Z,32.43
2022-08-03T16:19:53.433Z,32.66
2022-08-03T16:22:23.726Z,32.59
2022-08-03T16:24:53.783Z,33.02
2022-08-03T16:27:58.201Z,33.42
2022-08-03T16:30:11.662Z,33.19
2022-08-03T16:32:39.934Z,33.33
2022-08-03T16:35:09.025Z,32.65
2022-08-03T16:37:56.286Z,32.87
2022-08-03T16:40:26.868Z,33.16
2022-08-03T16:42:54.847Z,33.44
2022-08-03T16:45:22.918Z,34.11
2022-08-03T16:48:01.745Z,34.05
2022-08-03T16:50:35.085Z,34.43
2022-08-03T16:53:06.367Z,34.59
2022-08-03T16:55:48.522Z,34.03
2022-08-03T16:58:34.811Z,34.09
2022-08-03T17:01:22.283Z,34.40
2022-08-03T17:04:01.869Z,34.27
2022-08-03T17:06:34.583Z,34.12
2022-08-03T17:09:03.589Z,34.17
2022-08-03T17:11:43.908Z,34.33
2022-08-03T17:14:13.661Z,34.39
2022-08-03T17:16:51.879Z,34.00
2022-08-03T17:19:23.636Z,34.63
2022-08-03T17:21:58.222Z,34.48
2022-08-03T17:24:32.158Z,34.30
2022-08-03T17:27:08.868Z,34.59
2022-08-03T17:29:45.280Z,33.95
2022-08-03T17:32:18.415Z,33.91
2022-08-03T17:34:49.886Z,34.25
2022-08-03T17:37:49.896Z,34.84
2022-08-03T17:40:11.767Z,35.24
2022-08-03T17:42:50.788Z,35.38
2022-08-03T17:45:19.200Z,35.22
2022-08-03T17:47:57.579Z,35.32
2022-08-03T17:50:35.575Z,34.90
2022-08-03T17:53:15.240Z,35.72
2022-08-03T17:56:36.159Z,35.45
2022-08-03T17:59:08.664Z,35.28
2022-08-03T18:02:12.224Z,35.95
2022-08-03T18:05:00.489Z,35.69
2022-08-03T18:07:41.200Z,36.22
2022-08-03T18:10:12.087Z,35.93
2022-08-03T18:12:51.895Z,35.69
2022-08-03T18:15:28.674Z,36.25
2022-08-03T18:18:02.649Z,35.38
2022-08-03T18:20:40.921Z,36.46
2022-08-03T18:23:11.838Z,35.92
2022-08-03T18:25:58.272Z,36.59
2022-08-03T18:28:27.907Z,36.92
2022-08-03T18:30:58.903Z,37.26
2022-08-03T18:34:16.748Z,37.35
2022-08-03T18:36:21.720Z,37.71
2022-08-03T18:38:53.956Z,37.82
2022-08-03T18:41:32.232Z,37.50
2022-08-03T18:44:07.845Z,38.48
2022-08-03T18:47:07.534Z,37.82
2022-08-03T18:49:53.904Z,40.41
2022-08-03T18:52:30.451Z,40.13
2022-08-03T18:58:05.302Z,45.70
2022-08-03T19:00:54.283Z,40.64
2022-08-03T19:03:43.021Z,40.86
2022-08-03T19:06:20.273Z,40.34
2022-08-03T19:08:51.324Z,40.25
2022-08-03T19:11:28.121Z,40.26
2022-08-03T19:13:59.453Z,42.40
2022-08-03T19:16:32.934Z,42.38
2022-08-03T19:19:04.060Z,41.78
2022-08-03T19:21:35.610Z,42.78
2022-08-03T19:24:09.750Z,43.38
2022-08-03T19:26:39.687Z,42.34
2022-08-03T19:29:15.071Z,44.12
2022-08-03T19:31:59.233Z,46.77
2022-08-03T19:34:32.685Z,46.73
2022-08-03T19:37:01.721Z,43.46
2022-08-03T19:39:31.705Z,41.65
2022-08-03T19:42:20.182Z,41.78
2022-08-03T19:44:54.836Z,42.79
2022-08-03T19:47:29.090Z,42.55
2022-08-03T19:50:05.778Z,43.50
2022-08-03T19:52:50.028Z,44.18
2022-08-03T19:55:19.049Z,43.74
2022-08-03T19:57:49.089Z,42.40
2022-08-03T20:00:26.405Z,43.75
2022-08-03T20:02:55.043Z,43.61
2022-08-03T20:05:25.171Z,44.08
2022-08-03T20:07:54.595Z,44.41
2022-08-03T20:10:24.277Z,43.22
2022-08-03T20:12:53.336Z,44.36
2022-08-03T20:15:22.387Z,43.78
2022-08-03T20:18:00.459Z,44.49
2022-08-03T20:20:32.160Z,43.59
2022-08-03T20:23:01.845Z,43.29
2022-08-03T20:25:37.886Z,44.39
2022-08-03T20:28:14.175Z,43.37
2022-08-03T20:30:44.429Z,46.44
2022-08-03T20:33:18.973Z,48.10
2022-08-03T20:35:50.165Z,47.95
2022-08-03T20:38:19.541Z,48.34
2022-08-03T20:40:48.645Z,47.78
2022-08-03T20:43:16.994Z,48.70
2022-08-03T20:46:00.810Z,46.82
2022-08-03T20:48:37.250Z,49.18
2022-08-03T20:51:11.097Z,49.18
2022-08-03T20:54:00.505Z,48.95
2022-08-03T20:56:33.560Z,49.28
2022-08-03T20:59:03.853Z,49.53
2022-08-03T21:01:36.433Z,50.23
2022-08-03T21:04:06.979Z,48.81
2022-08-03T21:06:42.916Z,50.31
2022-08-03T21:09:19.603Z,49.72
2022-08-03T21:11:51.189Z,49.99
2022-08-03T21:13:10.335Z,45.12
2022-08-03T21:14:24.118Z,50.47
2022-08-03T21:16:53.144Z,50.32
2022-08-03T21:19:23.100Z,50.49
2022-08-03T21:21:52.978Z,50.10
2022-08-03T21:24:24.625Z,51.16
2022-08-03T21:26:55.551Z,50.79
2022-08-03T21:29:24.284Z,51.09
2022-08-03T21:31:52.678Z,50.15
2022-08-03T21:34:21.744Z,47.90
2022-08-03T21:36:50.263Z,47.76
2022-08-03T21:39:19.751Z,47.49
2022-08-03T21:41:47.696Z,48.31
2022-08-03T21:44:18.442Z,47.95
2022-08-03T21:46:59.260Z,48.26
2022-08-03T21:50:07.263Z,48.28
2022-08-03T21:52:19.762Z,50.15
2022-08-03T21:54:50.802Z,49.96
2022-08-03T21:57:20.631Z,51.44
2022-08-03T21:59:54.198Z,51.87
2022-08-03T22:02:26.626Z,52.07
2022-08-03T22:04:56.350Z,52.21
2022-08-03T22:07:26.816Z,51.31
2022-08-03T22:09:57.475Z,51.25
2022-08-03T22:12:27.130Z,51.60
2022-08-03T22:15:01.231Z,51.63
2022-08-03T22:17:54.573Z,51.19
2022-08-03T22:20:20.058Z,50.95
2022-08-03T22:22:55.470Z,51.03
2022-08-03T22:25:29.815Z,50.40
2022-08-03T22:27:59.556Z,50.93
2022-08-03T22:30:28.026Z,50.56
2022-08-03T22:32:57.648Z,50.91
2022-08-03T22:35:27.221Z,50.95
2022-08-03T22:37:58.247Z,50.93
2022-08-03T22:40:28.028Z,51.14
2022-08-03T22:42:56.167Z,51.89
2022-08-03T22:46:06.430Z,52.04
2022-08-03T22:48:12.290Z,52.17
2022-08-03T22:50:40.682Z,52.29
2022-08-03T22:53:08.916Z,51.75
2022-08-03T22:55:38.436Z,51.81
2022-08-03T22:58:06.327Z,52.51
2022-08-03T23:00:34.416Z,51.87
2022-08-03T23:03:03.586Z,52.51
2022-08-03T23:06:00.839Z,52.14
2022-08-03T23:08:26.516Z,53.30
2022-08-03T23:11:01.412Z,53.31
2022-08-03T23:13:32.139Z,53.98
2022-08-03T23:16:01.818Z,54.39
2022-08-03T23:18:36.748Z,54.57
2022-08-03T23:21:11.270Z,55.02
2022-08-03T23:23:44.592Z,54.87
2022-08-03T23:26:14.795Z,54.37
2022-08-03T23:28:47.696Z,55.39
2022-08-03T23:31:16.355Z,56.29
2022-08-03T23:33:46.003Z,56.26
2022-08-03T23:36:30.888Z,55.88
2022-08-03T23:39:01.968Z,56.10
2022-08-03T23:41:31.955Z,56.74
2022-08-03T23:44:02.167Z,57.34
2022-08-03T23:46:32.162Z,56.19
2022-08-03T23:49:01.097Z,56.53
2022-08-03T23:51:39.913Z,56.89
2022-08-03T23:54:17.158Z,56.83
2022-08-03T23:56:55.439Z,56.29
2022-08-03T23:59:32.173Z,56.36
